sensor_id;sensor_type;location;lat;lon;timestamp;temperature;humidity
36372;DHT22;22398;51.346;12.372;2023-03-11T00:02:43;1.50;99.90
36372;DHT22;22398;51.346;12.372;2023-03-11T00:07:49;1.50;99.90
36372;DHT22;22398;51.346;12.372;2023-03-11T00:12:52;1.50;99.90
36372;DHT22;22398;51.346;12.372;2023-03-11T00:17:56;1.40;99.90
36372;DHT22;22398;51.346;12.372;2023-03-11T00:23:02;1.40;99.90
36372;DHT22;22398;51.346;12.372;2023-03-11T00:28:06;1.30;99.90
36372;DHT22;22398;51.346;12.372;2023-03-11T00:33:12;1.30;99.90
36372;DHT22;22398;51.346;12.372;2023-03-11T00:38:17;1.20;99.90
36372;DHT22;22398;51.346;12.372;2023-03-11T00:43:21;1.10;99.90
36372;DHT22;22398;51.346;12.372;2023-03-11T00:48:24;1.10;99.90
36372;DHT22;22398;51.346;12.372;2023-03-11T00:53:29;1.00;99.90
36372;DHT22;22398;51.346;12.372;2023-03-11T00:58:32;1.00;99.90
36372;DHT22;22398;51.346;12.372;2023-03-11T01:03:37;0.90;99.90
36372;DHT22;22398;51.346;12.372;2023-03-11T01:08:42;0.90;99.90
36372;DHT22;22398;51.346;12.372;2023-03-11T01:13:45;0.90;99.90
36372;DHT22;22398;51.346;12.372;2023-03-11T01:18:49;0.90;99.90
36372;DHT22;22398;51.346;12.372;2023-03-11T01:23:53;0.90;99.90
36372;DHT22;22398;51.346;12.372;2023-03-11T01:28:57;0.90;99.90
36372;DHT22;22398;51.346;12.372;2023-03-11T01:34:00;0.90;99.90
36372;DHT22;22398;51.346;12.372;2023-03-11T01:39:05;0.90;99.90
36372;DHT22;22398;51.346;12.372;2023-03-11T01:44:10;0.90;99.90
36372;DHT22;22398;51.346;12.372;2023-03-11T01:49:14;0.80;99.90
36372;DHT22;22398;51.346;12.372;2023-03-11T01:54:21;0.80;99.90
36372;DHT22;22398;51.346;12.372;2023-03-11T01:59:28;0.90;99.90
36372;DHT22;22398;51.346;12.372;2023-03-11T02:04:35;0.80;99.90
36372;DHT22;22398;51.346;12.372;2023-03-11T02:09:40;0.80;99.90
36372;DHT22;22398;51.346;12.372;2023-03-11T02:14:45;0.80;99.90
36372;DHT22;22398;51.346;12.372;2023-03-11T02:20:02;0.80;99.90
36372;DHT22;22398;51.346;12.372;2023-03-11T02:25:17;0.80;99.90
36372;DHT22;22398;51.346;12.372;2023-03-11T02:30:26;0.70;99.90
36372;DHT22;22398;51.346;12.372;2023-03-11T02:35:31;0.70;99.90
36372;DHT22;22398;51.346;12.372;2023-03-11T02:40:39;0.70;99.90
36372;DHT22;22398;51.346;12.372;2023-03-11T02:45:46;0.70;99.90
36372;DHT22;22398;51.346;12.372;2023-03-11T02:50:51;0.80;99.90
36372;DHT22;22398;51.346;12.372;2023-03-11T02:55:55;0.70;99.90
36372;DHT22;22398;51.346;12.372;2023-03-11T03:01:00;0.80;99.90
36372;DHT22;22398;51.346;12.372;2023-03-11T03:06:05;0.70;99.90
36372;DHT22;22398;51.346;12.372;2023-03-11T03:11:08;0.80;99.90
36372;DHT22;22398;51.346;12.372;2023-03-11T03:16:15;0.70;99.90
36372;DHT22;22398;51.346;12.372;2023-03-11T03:21:18;0.70;99.90
36372;DHT22;22398;51.346;12.372;2023-03-11T03:26:22;0.70;99.90
36372;DHT22;22398;51.346;12.372;2023-03-11T03:31:28;0.80;99.90
36372;DHT22;22398;51.346;12.372;2023-03-11T03:36:32;0.70;99.90
36372;DHT22;22398;51.346;12.372;2023-03-11T03:41:38;0.70;99.90
36372;DHT22;22398;51.346;12.372;2023-03-11T03:46:44;0.80;99.90
36372;DHT22;22398;51.346;12.372;2023-03-11T03:51:48;0.80;99.90
36372;DHT22;22398;51.346;12.372;2023-03-11T03:57:01;0.70;99.90
36372;DHT22;22398;51.346;12.372;2023-03-11T04:02:08;0.70;99.90
36372;DHT22;22398;51.346;12.372;2023-03-11T04:07:11;0.70;99.90
36372;DHT22;22398;51.346;12.372;2023-03-11T04:12:15;0.80;99.90
36372;DHT22;22398;51.346;12.372;2023-03-11T04:17:21;0.70;99.90
36372;DHT22;22398;51.346;12.372;2023-03-11T04:22:27;0.80;99.90
36372;DHT22;22398;51.346;12.372;2023-03-11T04:27:31;0.70;99.90
36372;DHT22;22398;51.346;12.372;2023-03-11T04:32:38;0.70;99.90
36372;DHT22;22398;51.346;12.372;2023-03-11T04:37:42;0.70;99.90
36372;DHT22;22398;51.346;12.372;2023-03-11T04:42:46;0.70;99.90
36372;DHT22;22398;51.346;12.372;2023-03-11T04:47:52;0.70;99.90
36372;DHT22;22398;51.346;12.372;2023-03-11T04:52:56;0.80;99.90
36372;DHT22;22398;51.346;12.372;2023-03-11T04:58:00;0.70;99.90
36372;DHT22;22398;51.346;12.372;2023-03-11T05:03:05;0.70;99.90
36372;DHT22;22398;51.346;12.372;2023-03-11T05:08:09;0.70;99.90
36372;DHT22;22398;51.346;12.372;2023-03-11T05:13:14;0.70;99.90
36372;DHT22;22398;51.346;12.372;2023-03-11T05:18:19;0.70;99.90
36372;DHT22;22398;51.346;12.372;2023-03-11T05:23:23;0.70;99.90
36372;DHT22;22398;51.346;12.372;2023-03-11T05:28:27;0.70;99.90
36372;DHT22;22398;51.346;12.372;2023-03-11T05:33:32;0.70;99.90
36372;DHT22;22398;51.346;12.372;2023-03-11T05:38:38;0.70;99.90
36372;DHT22;22398;51.346;12.372;2023-03-11T05:43:42;0.70;99.90
36372;DHT22;22398;51.346;12.372;2023-03-11T05:48:47;0.70;99.90
36372;DHT22;22398;51.346;12.372;2023-03-11T05:53:50;0.70;99.90
36372;DHT22;22398;51.346;12.372;2023-03-11T05:59:02;0.70;99.90
36372;DHT22;22398;51.346;12.372;2023-03-11T06:04:10;0.70;99.90
36372;DHT22;22398;51.346;12.372;2023-03-11T06:09:15;0.70;99.90
36372;DHT22;22398;51.346;12.372;2023-03-11T06:14:19;0.70;99.90
36372;DHT22;22398;51.346;12.372;2023-03-11T06:19:26;0.70;99.90
36372;DHT22;22398;51.346;12.372;2023-03-11T06:24:29;0.70;99.90
36372;DHT22;22398;51.346;12.372;2023-03-11T06:29:34;0.70;99.90
36372;DHT22;22398;51.346;12.372;2023-03-11T06:34:40;0.70;99.90
36372;DHT22;22398;51.346;12.372;2023-03-11T06:39:45;0.70;99.90
36372;DHT22;22398;51.346;12.372;2023-03-11T06:44:54;0.70;99.90
36372;DHT22;22398;51.346;12.372;2023-03-11T06:49:59;0.70;99.90
36372;DHT22;22398;51.346;12.372;2023-03-11T06:55:08;0.80;99.90
36372;DHT22;22398;51.346;12.372;2023-03-11T07:00:13;0.80;99.90
36372;DHT22;22398;51.346;12.372;2023-03-11T07:05:22;0.80;99.90
36372;DHT22;22398;51.346;12.372;2023-03-11T07:10:31;0.80;99.90
36372;DHT22;22398;51.346;12.372;2023-03-11T07:15:34;0.80;99.90
36372;DHT22;22398;51.346;12.372;2023-03-11T07:20:39;0.80;99.90
36372;DHT22;22398;51.346;12.372;2023-03-11T07:25:45;0.90;99.90
36372;DHT22;22398;51.346;12.372;2023-03-11T07:30:48;0.90;99.90
36372;DHT22;22398;51.346;12.372;2023-03-11T07:35:53;0.90;99.90
36372;DHT22;22398;51.346;12.372;2023-03-11T07:40:57;0.90;99.90
36372;DHT22;22398;51.346;12.372;2023-03-11T07:46:02;0.90;99.90
36372;DHT22;22398;51.346;12.372;2023-03-11T07:51:09;1.00;99.90
36372;DHT22;22398;51.346;12.372;2023-03-11T07:56:15;1.10;99.90
36372;DHT22;22398;51.346;12.372;2023-03-11T08:01:22;1.10;99.90
36372;DHT22;22398;51.346;12.372;2023-03-11T08:06:29;1.20;99.90
36372;DHT22;22398;51.346;12.372;2023-03-11T08:11:32;1.30;99.90
36372;DHT22;22398;51.346;12.372;2023-03-11T08:16:38;1.30;99.90
36372;DHT22;22398;51.346;12.372;2023-03-11T08:21:43;1.30;99.90
36372;DHT22;22398;51.346;12.372;2023-03-11T08:26:47;1.30;99.90
36372;DHT22;22398;51.346;12.372;2023-03-11T08:31:50;1.40;99.90
36372;DHT22;22398;51.346;12.372;2023-03-11T08:36:55;1.40;99.90
36372;DHT22;22398;51.346;12.372;2023-03-11T08:41:58;1.40;99.90
36372;DHT22;22398;51.346;12.372;2023-03-11T08:47:02;1.30;99.90
36372;DHT22;22398;51.346;12.372;2023-03-11T08:52:07;1.30;99.90
36372;DHT22;22398;51.346;12.372;2023-03-11T08:57:10;1.30;99.90
36372;DHT22;22398;51.346;12.372;2023-03-11T09:02:13;1.40;99.90
36372;DHT22;22398;51.346;12.372;2023-03-11T09:07:18;1.40;99.90
36372;DHT22;22398;51.346;12.372;2023-03-11T09:12:22;1.40;99.90
36372;DHT22;22398;51.346;12.372;2023-03-11T09:17:25;1.50;99.90
36372;DHT22;22398;51.346;12.372;2023-03-11T09:22:30;1.60;99.90
36372;DHT22;22398;51.346;12.372;2023-03-11T09:27:33;1.80;99.90
36372;DHT22;22398;51.346;12.372;2023-03-11T09:32:37;1.80;99.90
36372;DHT22;22398;51.346;12.372;2023-03-11T09:37:42;2.10;99.90
36372;DHT22;22398;51.346;12.372;2023-03-11T09:42:53;2.20;99.90
36372;DHT22;22398;51.346;12.372;2023-03-11T09:48:06;2.40;99.90
36372;DHT22;22398;51.346;12.372;2023-03-11T09:53:28;2.50;99.90
36372;DHT22;22398;51.346;12.372;2023-03-11T09:58:37;2.20;99.90
36372;DHT22;22398;51.346;12.372;2023-03-11T10:03:42;1.90;99.90
36372;DHT22;22398;51.346;12.372;2023-03-11T10:08:54;2.00;99.90
36372;DHT22;22398;51.346;12.372;2023-03-11T10:14:11;2.20;99.90
36372;DHT22;22398;51.346;12.372;2023-03-11T10:19:16;2.10;99.90
36372;DHT22;22398;51.346;12.372;2023-03-11T10:24:37;1.90;99.90
36372;DHT22;22398;51.346;12.372;2023-03-11T10:29:50;2.10;99.90
36372;DHT22;22398;51.346;12.372;2023-03-11T10:35:01;2.20;99.90
36372;DHT22;22398;51.346;12.372;2023-03-11T10:40:18;2.10;99.90
36372;DHT22;22398;51.346;12.372;2023-03-11T10:45:26;1.80;99.90
36372;DHT22;22398;51.346;12.372;2023-03-11T10:50:33;1.60;99.90
36372;DHT22;22398;51.346;12.372;2023-03-11T10:55:45;1.70;99.90
36372;DHT22;22398;51.346;12.372;2023-03-11T11:01:12;1.80;99.90
36372;DHT22;22398;51.346;12.372;2023-03-11T11:06:21;2.10;99.90
36372;DHT22;22398;51.346;12.372;2023-03-11T11:11:27;2.00;99.90
36372;DHT22;22398;51.346;12.372;2023-03-11T11:16:32;1.80;99.90
36372;DHT22;22398;51.346;12.372;2023-03-11T11:21:37;1.90;99.90
36372;DHT22;22398;51.346;12.372;2023-03-11T11:27:02;2.00;99.90
36372;DHT22;22398;51.346;12.372;2023-03-11T11:32:23;2.10;99.90
36372;DHT22;22398;51.346;12.372;2023-03-11T11:37:28;2.10;99.90
36372;DHT22;22398;51.346;12.372;2023-03-11T11:42:35;1.90;99.90
36372;DHT22;22398;51.346;12.372;2023-03-11T11:47:42;2.10;99.90
36372;DHT22;22398;51.346;12.372;2023-03-11T11:52:50;2.30;99.90
36372;DHT22;22398;51.346;12.372;2023-03-11T11:57:56;2.50;99.90
36372;DHT22;22398;51.346;12.372;2023-03-11T12:03:29;2.50;99.90
36372;DHT22;22398;51.346;12.372;2023-03-11T12:08:40;2.40;99.90
36372;DHT22;22398;51.346;12.372;2023-03-11T12:13:50;2.60;99.90
36372;DHT22;22398;51.346;12.372;2023-03-11T12:19:04;2.90;99.90
36372;DHT22;22398;51.346;12.372;2023-03-11T12:24:22;3.20;99.90
36372;DHT22;22398;51.346;12.372;2023-03-11T12:29:31;3.30;99.90
36372;DHT22;22398;51.346;12.372;2023-03-11T12:34:35;3.30;99.90
36372;DHT22;22398;51.346;12.372;2023-03-11T12:39:38;3.30;99.90
36372;DHT22;22398;51.346;12.372;2023-03-11T12:44:44;3.20;99.90
36372;DHT22;22398;51.346;12.372;2023-03-11T12:49:49;3.30;99.90
36372;DHT22;22398;51.346;12.372;2023-03-11T13:00:59;3.30;99.90
36372;DHT22;22398;51.346;12.372;2023-03-11T13:06:23;3.10;99.90
36372;DHT22;22398;51.346;12.372;2023-03-11T13:11:37;3.00;99.90
36372;DHT22;22398;51.346;12.372;2023-03-11T13:16:45;3.30;99.90
36372;DHT22;22398;51.346;12.372;2023-03-11T13:21:50;3.60;99.90
36372;DHT22;22398;51.346;12.372;2023-03-11T13:26:56;3.70;99.90
36372;DHT22;22398;51.346;12.372;2023-03-11T13:32:21;3.80;99.90
36372;DHT22;22398;51.346;12.372;2023-03-11T13:37:35;3.70;99.90
36372;DHT22;22398;51.346;12.372;2023-03-11T13:42:46;3.40;99.90
36372;DHT22;22398;51.346;12.372;2023-03-11T13:47:55;3.50;99.90
36372;DHT22;22398;51.346;12.372;2023-03-11T13:53:05;3.70;99.90
36372;DHT22;22398;51.346;12.372;2023-03-11T13:58:14;3.90;99.90
36372;DHT22;22398;51.346;12.372;2023-03-11T14:03:21;4.00;99.90
36372;DHT22;22398;51.346;12.372;2023-03-11T14:08:28;4.10;99.90
36372;DHT22;22398;51.346;12.372;2023-03-11T14:13:40;4.20;99.90
36372;DHT22;22398;51.346;12.372;2023-03-11T14:18:46;4.10;99.90
36372;DHT22;22398;51.346;12.372;2023-03-11T14:23:52;4.20;99.90
36372;DHT22;22398;51.346;12.372;2023-03-11T14:28:58;4.20;99.90
36372;DHT22;22398;51.346;12.372;2023-03-11T14:34:13;4.10;99.90
36372;DHT22;22398;51.346;12.372;2023-03-11T14:39:28;4.30;99.90
36372;DHT22;22398;51.346;12.372;2023-03-11T14:44:33;4.60;99.90
36372;DHT22;22398;51.346;12.372;2023-03-11T14:49:39;4.50;99.90
36372;DHT22;22398;51.346;12.372;2023-03-11T14:54:43;4.50;99.90
36372;DHT22;22398;51.346;12.372;2023-03-11T14:59:49;4.70;99.90
36372;DHT22;22398;51.346;12.372;2023-03-11T15:04:55;4.80;99.90
36372;DHT22;22398;51.346;12.372;2023-03-11T15:10:05;4.70;99.90
36372;DHT22;22398;51.346;12.372;2023-03-11T15:15:24;4.20;99.60
36372;DHT22;22398;51.346;12.372;2023-03-11T15:20:32;3.90;99.10
36372;DHT22;22398;51.346;12.372;2023-03-11T15:25:37;3.60;98.80
36372;DHT22;22398;51.346;12.372;2023-03-11T15:30:41;3.50;98.60
36372;DHT22;22398;51.346;12.372;2023-03-11T15:35:47;3.30;97.90
36372;DHT22;22398;51.346;12.372;2023-03-11T15:40:53;3.20;97.80
36372;DHT22;22398;51.346;12.372;2023-03-11T15:46:01;3.20;97.90
36372;DHT22;22398;51.346;12.372;2023-03-11T15:51:17;3.10;97.70
36372;DHT22;22398;51.346;12.372;2023-03-11T15:56:23;3.00;97.80
36372;DHT22;22398;51.346;12.372;2023-03-11T16:01:27;3.10;97.70
36372;DHT22;22398;51.346;12.372;2023-03-11T16:06:33;3.00;97.60
36372;DHT22;22398;51.346;12.372;2023-03-11T16:11:38;3.00;97.30
36372;DHT22;22398;51.346;12.372;2023-03-11T16:16:42;2.90;97.20
36372;DHT22;22398;51.346;12.372;2023-03-11T16:21:48;2.90;97.00
36372;DHT22;22398;51.346;12.372;2023-03-11T16:26:52;2.80;97.00
36372;DHT22;22398;51.346;12.372;2023-03-11T16:31:56;2.70;96.90
36372;DHT22;22398;51.346;12.372;2023-03-11T16:37:01;2.60;97.00
36372;DHT22;22398;51.346;12.372;2023-03-11T16:42:04;2.50;96.90
36372;DHT22;22398;51.346;12.372;2023-03-11T16:47:08;2.30;97.00
36372;DHT22;22398;51.346;12.372;2023-03-11T16:52:14;2.30;97.10
36372;DHT22;22398;51.346;12.372;2023-03-11T16:57:21;2.10;97.10
36372;DHT22;22398;51.346;12.372;2023-03-11T17:02:25;2.00;97.30
36372;DHT22;22398;51.346;12.372;2023-03-11T17:07:30;1.80;97.40
36372;DHT22;22398;51.346;12.372;2023-03-11T17:12:34;1.80;97.60
36372;DHT22;22398;51.346;12.372;2023-03-11T17:17:38;1.70;97.70
36372;DHT22;22398;51.346;12.372;2023-03-11T17:22:43;1.50;97.80
36372;DHT22;22398;51.346;12.372;2023-03-11T17:27:47;1.50;97.90
36372;DHT22;22398;51.346;12.372;2023-03-11T17:32:51;1.40;98.00
36372;DHT22;22398;51.346;12.372;2023-03-11T17:37:56;1.30;98.00
36372;DHT22;22398;51.346;12.372;2023-03-11T17:43:00;1.20;98.10
36372;DHT22;22398;51.346;12.372;2023-03-11T17:48:04;1.10;98.20
36372;DHT22;22398;51.346;12.372;2023-03-11T17:53:09;1.00;98.20
36372;DHT22;22398;51.346;12.372;2023-03-11T17:58:12;0.80;98.30
36372;DHT22;22398;51.346;12.372;2023-03-11T18:03:15;0.70;98.60
36372;DHT22;22398;51.346;12.372;2023-03-11T18:08:20;0.70;98.90
36372;DHT22;22398;51.346;12.372;2023-03-11T18:13:24;0.80;99.00
36372;DHT22;22398;51.346;12.372;2023-03-11T18:18:29;0.70;99.00
36372;DHT22;22398;51.346;12.372;2023-03-11T18:23:34;0.70;99.10
36372;DHT22;22398;51.346;12.372;2023-03-11T18:28:38;0.70;99.30
36372;DHT22;22398;51.346;12.372;2023-03-11T18:33:46;0.50;99.40
36372;DHT22;22398;51.346;12.372;2023-03-11T18:38:54;0.40;99.60
36372;DHT22;22398;51.346;12.372;2023-03-11T18:43:58;0.30;99.80
36372;DHT22;22398;51.346;12.372;2023-03-11T18:49:02;0.30;99.90
36372;DHT22;22398;51.346;12.372;2023-03-11T18:54:09;0.30;99.90
36372;DHT22;22398;51.346;12.372;2023-03-11T18:59:12;0.20;99.90
36372;DHT22;22398;51.346;12.372;2023-03-11T19:04:15;0.20;99.90
36372;DHT22;22398;51.346;12.372;2023-03-11T19:09:20;0.20;99.90
36372;DHT22;22398;51.346;12.372;2023-03-11T19:14:23;0.20;99.90
36372;DHT22;22398;51.346;12.372;2023-03-11T19:19:27;0.20;99.90
36372;DHT22;22398;51.346;12.372;2023-03-11T19:24:33;0.20;99.90
36372;DHT22;22398;51.346;12.372;2023-03-11T19:29:37;0.10;99.90
36372;DHT22;22398;51.346;12.372;2023-03-11T19:34:41;0.00;99.90
36372;DHT22;22398;51.346;12.372;2023-03-11T19:39:46;-0.10;99.90
36372;DHT22;22398;51.346;12.372;2023-03-11T19:44:49;-0.20;99.90
36372;DHT22;22398;51.346;12.372;2023-03-11T19:49:53;-0.20;99.90
36372;DHT22;22398;51.346;12.372;2023-03-11T19:54:58;-0.20;99.90
36372;DHT22;22398;51.346;12.372;2023-03-11T20:00:01;-0.20;99.90
36372;DHT22;22398;51.346;12.372;2023-03-11T20:05:06;-0.20;99.90
36372;DHT22;22398;51.346;12.372;2023-03-11T20:10:11;0.00;99.90
36372;DHT22;22398;51.346;12.372;2023-03-11T20:15:18;0.00;99.90
36372;DHT22;22398;51.346;12.372;2023-03-11T20:20:21;-0.10;99.90
36372;DHT22;22398;51.346;12.372;2023-03-11T20:25:26;-0.10;99.90
36372;DHT22;22398;51.346;12.372;2023-03-11T20:30:33;-0.10;99.90
36372;DHT22;22398;51.346;12.372;2023-03-11T20:35:37;-0.10;99.90
36372;DHT22;22398;51.346;12.372;2023-03-11T20:40:43;-0.10;99.90
36372;DHT22;22398;51.346;12.372;2023-03-11T20:45:47;-0.10;99.90
36372;DHT22;22398;51.346;12.372;2023-03-11T20:50:51;-0.20;99.90
36372;DHT22;22398;51.346;12.372;2023-03-11T20:55:55;-0.20;99.90
36372;DHT22;22398;51.346;12.372;2023-03-11T21:00:59;-0.10;99.90
36372;DHT22;22398;51.346;12.372;2023-03-11T21:06:03;-0.20;99.90
36372;DHT22;22398;51.346;12.372;2023-03-11T21:11:08;-0.20;99.90
36372;DHT22;22398;51.346;12.372;2023-03-11T21:16:11;-0.30;99.90
36372;DHT22;22398;51.346;12.372;2023-03-11T21:21:16;-0.30;99.90
36372;DHT22;22398;51.346;12.372;2023-03-11T21:26:21;-0.40;99.90
36372;DHT22;22398;51.346;12.372;2023-03-11T21:31:25;-0.40;99.90
36372;DHT22;22398;51.346;12.372;2023-03-11T21:36:30;-0.30;99.90
36372;DHT22;22398;51.346;12.372;2023-03-11T21:41:35;-0.40;99.90
36372;DHT22;22398;51.346;12.372;2023-03-11T21:46:38;-0.30;99.90
36372;DHT22;22398;51.346;12.372;2023-03-11T21:51:42;-0.30;99.90
36372;DHT22;22398;51.346;12.372;2023-03-11T21:56:47;-0.10;99.90
36372;DHT22;22398;51.346;12.372;2023-03-11T22:01:50;-0.10;99.90
36372;DHT22;22398;51.346;12.372;2023-03-11T22:06:53;-0.10;99.90
36372;DHT22;22398;51.346;12.372;2023-03-11T22:11:59;-0.20;99.90
36372;DHT22;22398;51.346;12.372;2023-03-11T22:17:03;-0.30;99.90
36372;DHT22;22398;51.346;12.372;2023-03-11T22:22:06;-0.50;99.90
36372;DHT22;22398;51.346;12.372;2023-03-11T22:27:11;-0.60;99.90
36372;DHT22;22398;51.346;12.372;2023-03-11T22:32:15;-0.60;99.90
36372;DHT22;22398;51.346;12.372;2023-03-11T22:37:18;-0.60;99.90
36372;DHT22;22398;51.346;12.372;2023-03-11T22:42:23;-0.70;99.90
36372;DHT22;22398;51.346;12.372;2023-03-11T22:47:26;-0.70;99.90
36372;DHT22;22398;51.346;12.372;2023-03-11T22:52:29;-0.70;99.90
36372;DHT22;22398;51.346;12.372;2023-03-11T22:57:34;-0.70;99.90
36372;DHT22;22398;51.346;12.372;2023-03-11T23:02:39;-0.70;99.90
36372;DHT22;22398;51.346;12.372;2023-03-11T23:07:43;-0.70;99.90
36372;DHT22;22398;51.346;12.372;2023-03-11T23:12:48;-0.70;99.90
36372;DHT22;22398;51.346;12.372;2023-03-11T23:17:51;-0.80;99.90
36372;DHT22;22398;51.346;12.372;2023-03-11T23:22:55;-0.90;99.90
36372;DHT22;22398;51.346;12.372;2023-03-11T23:28:00;-0.90;99.90
36372;DHT22;22398;51.346;12.372;2023-03-11T23:33:03;-1.00;99.90
36372;DHT22;22398;51.346;12.372;2023-03-11T23:38:07;-0.90;99.90
36372;DHT22;22398;51.346;12.372;2023-03-11T23:43:12;-0.90;99.90
36372;DHT22;22398;51.346;12.372;2023-03-11T23:48:15;-1.00;99.90
36372;DHT22;22398;51.346;12.372;2023-03-11T23:53:19;-1.00;99.90
36372;DHT22;22398;51.346;12.372;2023-03-11T23:58:25;-1.10;99.90
